METAR Data
IDs: Format: Raw Decoded Include TAF

Data at: 1826 UTC 21 Sep 2018

KHQZ 211750Z 14006KT 4SM BR BKN010 OVC043 26/26 A2997
KHQZ 211650Z 16003KT 2SM RABR BKN010 OVC037 26/24 A2999
KHQZ 211550Z 14008KT 10SM BKN013 OVC019 27/24 A2999
KHQZ 211450Z 14005KT 10SM OVC012 26/24 A2998
KHQZ 211350Z 13007KT 6SM BR OVC010 25/24 A2997
KHQZ 211250Z 13006KT 10SM OVC011 24/24 A2996
KHQZ 211150Z 14004KT 10SM OVC013 24/23 A2995
KHQZ 211135Z AUTO 15004KT 10SM BKN013 OVC110 24/23 A2995 RMK AO1 T02400233
KHQZ 211115Z AUTO 15004KT 10SM SCT013 SCT085 OVC110 24/23 A2995 RMK AO1 T02380231
KHQZ 211055Z AUTO 15006KT 10SM SCT014 BKN085 OVC100 24/23 A2994 RMK AO1 T02370230
KHQZ 211035Z AUTO 15004KT 10SM SCT014 SCT075 OVC085 24/23 A2994 RMK AO1 T02370230
KHQZ 211015Z AUTO 16005KT 10SM OVC075 24/23 A2994 RMK AO1 T02360230
KHQZ 210955Z AUTO 16005KT 7SM OVC075 24/23 A2994 RMK AO1 T02360230
KHQZ 210935Z AUTO 15005KT 10SM OVC075 24/23 A2994 RMK AO1 T02360229
KHQZ 210915Z AUTO 15006KT 10SM OVC075 24/23 A2994 RMK AO1 T02350227
KHQZ 210855Z AUTO 14003KT 7SM OVC075 23/23 A2994 RMK AO1 T02320225
KHQZ 210835Z AUTO 00000KT 10SM SCT020 OVC085 23/22 A2995 RMK AO1 T02310224
KHQZ 210815Z AUTO 17003KT 10SM OVC080 23/22 A2995 RMK AO1 T02310222
KHQZ 210755Z AUTO 14004KT 10SM OVC080 23/22 A2994 RMK AO1 T02300221
KHQZ 210735Z AUTO 17004KT 10SM OVC080 23/22 A2994 RMK AO1 T02300221
KHQZ 210715Z AUTO 17003KT 10SM BKN080 OVC100 23/22 A2994 RMK AO1 T02300222
KHQZ 210655Z AUTO 15004KT 7SM SCT080 OVC100 23/22 A2994 RMK AO1 T02300222
KHQZ 210635Z AUTO 17004KT 10SM OVC080 23/22 A2995 RMK AO1 T02300221
KHQZ 210615Z AUTO 17005KT 10SM OVC080 23/22 A2995 RMK AO1 T02300221
KHQZ 210555Z AUTO 14005KT 10SM OVC080 23/22 A2995 RMK AO1 T02300221 10245 20225 403250218
KHQZ 210535Z AUTO 15004KT 7SM SCT080 23/22 A2996 RMK AO1 T02260220
KHQZ 210515Z AUTO 15004KT 7SM CLR 23/22 A2996 RMK AO1 T02270220
KHQZ 210455Z AUTO 16004KT 10SM CLR 23/22 A2996 RMK AO1 T02260218
KHQZ 210435Z AUTO 17005KT 10SM CLR 23/22 A2997 RMK AO1 T02270217
KHQZ 210415Z AUTO 16006KT 10SM CLR 23/22 A2996 RMK AO1 T02280217
KHQZ 210355Z AUTO 17006KT 10SM CLR 23/22 A2997 RMK AO1 T02290217
KHQZ 210335Z AUTO 16005KT 10SM SCT060 23/22 A2996 RMK AO1 T02260215
KHQZ 210315Z AUTO 14003KT 10SM SCT033 BKN060 BKN095 23/22 A2996 RMK AO1 T02250216
KHQZ 210255Z AUTO 00000KT 10SM SCT070 BKN100 23/22 A2996 RMK AO1 T02260215
KHQZ 210235Z AUTO 00000KT 10SM BKN100 23/22 A2996 RMK AO1 T02280217
KHQZ 210215Z AUTO 00000KT 10SM CLR 23/22 A2996 RMK AO1 T02270215
KHQZ 210155Z AUTO 00000KT 10SM SCT055 SCT070 SCT100 23/21 A2996 RMK AO1 T02290213
KHQZ 210050Z 00000KT 10SM VCTS SCT043 SCT060 24/22 A2993
KHQZ 202350Z 22014G20KT 7SM VCTS SCT035 BKN045 OVC070 25/23 A2991
KHQZ 202250Z 14007KT 10SM VCSH SCT030 SCT048 30/22 A2989
KHQZ 202150Z 12008KT 10SM SCT030 31/21 A2990
KHQZ 202050Z 15007KT 10SM BKN030 32/21 A2991
KHQZ 201950Z 17009KT 10SM BKN030 32/22 A2993
KHQZ 201850Z 14006KT 10SM BKN032 31/22 A2995
KHQZ 201750Z 16011G20KT 10SM BKN032 31/22 A2997
KHQZ 201650Z 16013G18KT 10SM BKN026 29/23 A3000
KHQZ 201550Z 16008KT 10SM BKN020 29/23 A3000
KHQZ 201450Z 14008KT 10SM FEW120 27/23 A2999
KHQZ 201350Z 13005KT 10SM CLR 25/23 A2998
KHQZ 201250Z 13004KT 7SM CLR 23/22 A2996
KHQZ 201150Z 12004KT 7SM CLR 22/22 A2995
KHQZ 201135Z AUTO 13005KT 7SM CLR 22/22 A2995 RMK AO1 T02210216
KHQZ 201115Z AUTO 15004KT 7SM CLR 22/21 A2994 RMK AO1 T02200211
KHQZ 201055Z AUTO 19003KT 10SM CLR 22/22 A2994 RMK AO1 T02220215
KHQZ 201035Z AUTO 16004KT 10SM CLR 23/22 A2993 RMK AO1 T02250216
KHQZ 201015Z AUTO 17004KT 10SM CLR 23/22 A2993 RMK AO1 T02260217
KHQZ 200955Z AUTO 18003KT 10SM CLR 23/22 A2993 RMK AO1 T02280218
KHQZ 200935Z AUTO 17004KT 10SM CLR 23/22 A2993 RMK AO1 T02310220
KHQZ 200915Z AUTO 17004KT 10SM CLR 23/22 A2993 RMK AO1 T02320220
KHQZ 200855Z AUTO 16005KT 10SM CLR 23/22 A2993 RMK AO1 60003 T02300220
KHQZ 200835Z AUTO 16003KT 10SM CLR 23/22 A2993 RMK AO1 T02280220
KHQZ 200815Z AUTO 16004KT 10SM CLR 23/22 A2994 RMK AO1 T02310220
KHQZ 200755Z AUTO 16004KT 10SM CLR 24/22 A2993 RMK AO1 T02350221
KHQZ 200735Z AUTO 16004KT 10SM CLR 24/22 A2994 RMK AO1 T02400221
KHQZ 200715Z AUTO 15005KT 10SM CLR 25/22 A2994 RMK AO1 T02490220
KHQZ 200655Z AUTO 14006KT 10SM CLR 25/22 A2994 RMK AO1 P0003 T02530220
KHQZ 200635Z AUTO 14006KT 10SM CLR 25/22 A2994 RMK AO1 P0001 T02520223